sensor_id;sensor_type;location;lat;lon;timestamp;temperature;humidity
50955;DHT22;36966;48.064;-0.792;2024-01-07T00:00:04;16.20;50.10
50955;DHT22;36966;48.064;-0.792;2024-01-07T00:02:23;16.20;50.00
50955;DHT22;36966;48.064;-0.792;2024-01-07T00:04:42;16.30;50.00
50955;DHT22;36966;48.064;-0.792;2024-01-07T00:07:01;16.20;50.10
50955;DHT22;36966;48.064;-0.792;2024-01-07T00:09:21;16.30;49.90
50955;DHT22;36966;48.064;-0.792;2024-01-07T00:11:40;16.20;49.90
50955;DHT22;36966;48.064;-0.792;2024-01-07T00:13:59;16.20;49.90
50955;DHT22;36966;48.064;-0.792;2024-01-07T00:16:19;16.20;49.90
50955;DHT22;36966;48.064;-0.792;2024-01-07T00:18:39;16.20;49.80
50955;DHT22;36966;48.064;-0.792;2024-01-07T00:20:58;16.20;49.80
50955;DHT22;36966;48.064;-0.792;2024-01-07T00:23:17;16.20;49.80
50955;DHT22;36966;48.064;-0.792;2024-01-07T00:25:36;16.20;49.80
50955;DHT22;36966;48.064;-0.792;2024-01-07T00:27:56;16.20;49.80
50955;DHT22;36966;48.064;-0.792;2024-01-07T00:30:15;16.20;49.80
50955;DHT22;36966;48.064;-0.792;2024-01-07T00:32:34;16.20;49.70
50955;DHT22;36966;48.064;-0.792;2024-01-07T00:34:54;16.20;49.70
50955;DHT22;36966;48.064;-0.792;2024-01-07T00:37:13;16.20;49.80
50955;DHT22;36966;48.064;-0.792;2024-01-07T00:39:32;16.20;49.70
50955;DHT22;36966;48.064;-0.792;2024-01-07T00:41:51;16.20;49.60
50955;DHT22;36966;48.064;-0.792;2024-01-07T00:44:11;16.20;49.70
50955;DHT22;36966;48.064;-0.792;2024-01-07T00:46:30;16.20;49.70
50955;DHT22;36966;48.064;-0.792;2024-01-07T00:48:49;16.20;49.60
50955;DHT22;36966;48.064;-0.792;2024-01-07T00:51:08;16.20;49.60
50955;DHT22;36966;48.064;-0.792;2024-01-07T00:53:28;16.20;49.60
50955;DHT22;36966;48.064;-0.792;2024-01-07T00:55:47;16.20;49.60
50955;DHT22;36966;48.064;-0.792;2024-01-07T00:58:06;16.20;49.60
50955;DHT22;36966;48.064;-0.792;2024-01-07T01:00:26;16.20;49.50
50955;DHT22;36966;48.064;-0.792;2024-01-07T01:02:46;16.20;49.60
50955;DHT22;36966;48.064;-0.792;2024-01-07T01:05:06;16.20;49.60
50955;DHT22;36966;48.064;-0.792;2024-01-07T01:07:25;16.20;49.50
50955;DHT22;36966;48.064;-0.792;2024-01-07T01:09:44;16.20;49.60
50955;DHT22;36966;48.064;-0.792;2024-01-07T01:12:03;16.10;49.50
50955;DHT22;36966;48.064;-0.792;2024-01-07T01:14:22;16.20;49.50
50955;DHT22;36966;48.064;-0.792;2024-01-07T01:16:42;16.20;49.50
50955;DHT22;36966;48.064;-0.792;2024-01-07T01:19:01;16.10;49.50
50955;DHT22;36966;48.064;-0.792;2024-01-07T01:21:21;16.20;49.40
50955;DHT22;36966;48.064;-0.792;2024-01-07T01:23:40;16.20;49.40
50955;DHT22;36966;48.064;-0.792;2024-01-07T01:25:59;16.10;49.40
50955;DHT22;36966;48.064;-0.792;2024-01-07T01:28:19;16.10;49.40
50955;DHT22;36966;48.064;-0.792;2024-01-07T01:30:39;16.10;49.30
50955;DHT22;36966;48.064;-0.792;2024-01-07T01:33:00;16.10;49.40
50955;DHT22;36966;48.064;-0.792;2024-01-07T01:35:20;16.10;49.40
50955;DHT22;36966;48.064;-0.792;2024-01-07T01:37:40;16.10;49.30
50955;DHT22;36966;48.064;-0.792;2024-01-07T01:39:59;16.10;49.30
50955;DHT22;36966;48.064;-0.792;2024-01-07T01:42:18;16.10;49.30
50955;DHT22;36966;48.064;-0.792;2024-01-07T01:44:38;16.10;49.30
50955;DHT22;36966;48.064;-0.792;2024-01-07T01:46:57;16.10;49.30
50955;DHT22;36966;48.064;-0.792;2024-01-07T01:49:17;16.10;49.30
50955;DHT22;36966;48.064;-0.792;2024-01-07T01:51:36;16.10;49.30
50955;DHT22;36966;48.064;-0.792;2024-01-07T01:53:55;16.10;49.20
50955;DHT22;36966;48.064;-0.792;2024-01-07T01:56:17;16.10;49.30
50955;DHT22;36966;48.064;-0.792;2024-01-07T01:58:36;16.10;49.20
50955;DHT22;36966;48.064;-0.792;2024-01-07T02:00:56;16.10;49.30
50955;DHT22;36966;48.064;-0.792;2024-01-07T02:03:15;16.10;49.20
50955;DHT22;36966;48.064;-0.792;2024-01-07T02:05:34;16.10;49.20
50955;DHT22;36966;48.064;-0.792;2024-01-07T02:07:54;16.10;49.30
50955;DHT22;36966;48.064;-0.792;2024-01-07T02:10:15;16.10;49.30
50955;DHT22;36966;48.064;-0.792;2024-01-07T02:12:34;16.10;49.20
50955;DHT22;36966;48.064;-0.792;2024-01-07T02:14:54;16.10;49.20
50955;DHT22;36966;48.064;-0.792;2024-01-07T02:17:14;16.10;49.30
50955;DHT22;36966;48.064;-0.792;2024-01-07T02:19:33;16.10;49.20
50955;DHT22;36966;48.064;-0.792;2024-01-07T02:21:52;16.00;49.30
50955;DHT22;36966;48.064;-0.792;2024-01-07T02:24:15;16.00;49.20
50955;DHT22;36966;48.064;-0.792;2024-01-07T02:26:34;16.10;49.20
50955;DHT22;36966;48.064;-0.792;2024-01-07T02:28:53;16.00;49.20
50955;DHT22;36966;48.064;-0.792;2024-01-07T02:31:12;16.10;49.10
50955;DHT22;36966;48.064;-0.792;2024-01-07T02:33:32;16.00;49.00
50955;DHT22;36966;48.064;-0.792;2024-01-07T02:35:51;16.00;49.20
50955;DHT22;36966;48.064;-0.792;2024-01-07T02:38:10;16.10;49.20
50955;DHT22;36966;48.064;-0.792;2024-01-07T02:40:30;16.00;49.10
50955;DHT22;36966;48.064;-0.792;2024-01-07T02:42:49;16.00;49.20
50955;DHT22;36966;48.064;-0.792;2024-01-07T02:45:08;16.10;49.20
50955;DHT22;36966;48.064;-0.792;2024-01-07T02:47:28;16.10;49.10
50955;DHT22;36966;48.064;-0.792;2024-01-07T02:49:47;16.10;49.10
50955;DHT22;36966;48.064;-0.792;2024-01-07T02:52:06;16.00;49.20
50955;DHT22;36966;48.064;-0.792;2024-01-07T02:54:26;16.00;49.20
50955;DHT22;36966;48.064;-0.792;2024-01-07T02:56:45;16.00;49.10
50955;DHT22;36966;48.064;-0.792;2024-01-07T02:59:04;16.00;49.10
50955;DHT22;36966;48.064;-0.792;2024-01-07T03:01:23;16.10;49.10
50955;DHT22;36966;48.064;-0.792;2024-01-07T03:03:42;16.00;49.20
50955;DHT22;36966;48.064;-0.792;2024-01-07T03:06:01;16.00;49.10
50955;DHT22;36966;48.064;-0.792;2024-01-07T03:08:21;16.00;49.20
50955;DHT22;36966;48.064;-0.792;2024-01-07T03:10:40;16.00;49.20
50955;DHT22;36966;48.064;-0.792;2024-01-07T03:13:00;16.00;49.20
50955;DHT22;36966;48.064;-0.792;2024-01-07T03:15:19;16.00;49.20
50955;DHT22;36966;48.064;-0.792;2024-01-07T03:17:38;16.00;49.20
50955;DHT22;36966;48.064;-0.792;2024-01-07T03:19:58;16.00;49.20
50955;DHT22;36966;48.064;-0.792;2024-01-07T03:22:17;16.00;49.10
50955;DHT22;36966;48.064;-0.792;2024-01-07T03:24:36;16.00;49.10
50955;DHT22;36966;48.064;-0.792;2024-01-07T03:26:55;16.00;49.10
50955;DHT22;36966;48.064;-0.792;2024-01-07T03:29:15;16.00;49.10
50955;DHT22;36966;48.064;-0.792;2024-01-07T03:31:34;16.00;49.10
50955;DHT22;36966;48.064;-0.792;2024-01-07T03:33:53;16.00;49.10
50955;DHT22;36966;48.064;-0.792;2024-01-07T03:36:13;16.00;49.10
50955;DHT22;36966;48.064;-0.792;2024-01-07T03:38:32;16.00;49.00
50955;DHT22;36966;48.064;-0.792;2024-01-07T03:40:52;16.00;49.00
50955;DHT22;36966;48.064;-0.792;2024-01-07T03:43:11;16.00;49.10
50955;DHT22;36966;48.064;-0.792;2024-01-07T03:45:30;16.00;49.10
50955;DHT22;36966;48.064;-0.792;2024-01-07T03:47:50;16.00;49.00
50955;DHT22;36966;48.064;-0.792;2024-01-07T03:50:10;15.90;49.10
50955;DHT22;36966;48.064;-0.792;2024-01-07T03:52:30;16.00;49.10
50955;DHT22;36966;48.064;-0.792;2024-01-07T03:54:49;16.00;49.10
50955;DHT22;36966;48.064;-0.792;2024-01-07T03:57:08;16.00;49.00
50955;DHT22;36966;48.064;-0.792;2024-01-07T03:59:27;15.90;49.10
50955;DHT22;36966;48.064;-0.792;2024-01-07T04:01:47;15.90;49.00
50955;DHT22;36966;48.064;-0.792;2024-01-07T04:04:06;15.90;49.10
50955;DHT22;36966;48.064;-0.792;2024-01-07T04:06:25;16.00;49.00
50955;DHT22;36966;48.064;-0.792;2024-01-07T04:08:45;15.90;49.00
50955;DHT22;36966;48.064;-0.792;2024-01-07T04:11:05;15.90;49.00
50955;DHT22;36966;48.064;-0.792;2024-01-07T04:13:24;15.90;49.00
50955;DHT22;36966;48.064;-0.792;2024-01-07T04:15:43;16.00;49.10
50955;DHT22;36966;48.064;-0.792;2024-01-07T04:18:03;16.00;49.00
50955;DHT22;36966;48.064;-0.792;2024-01-07T04:20:22;15.90;49.00
50955;DHT22;36966;48.064;-0.792;2024-01-07T04:22:42;16.00;49.10
50955;DHT22;36966;48.064;-0.792;2024-01-07T04:25:01;16.00;49.10
50955;DHT22;36966;48.064;-0.792;2024-01-07T04:27:21;15.90;49.10
50955;DHT22;36966;48.064;-0.792;2024-01-07T04:29:40;15.90;49.00
50955;DHT22;36966;48.064;-0.792;2024-01-07T04:31:59;15.90;49.00
50955;DHT22;36966;48.064;-0.792;2024-01-07T04:34:18;15.90;49.00
50955;DHT22;36966;48.064;-0.792;2024-01-07T04:36:38;15.90;49.00
50955;DHT22;36966;48.064;-0.792;2024-01-07T04:38:57;15.90;48.90
50955;DHT22;36966;48.064;-0.792;2024-01-07T04:41:16;15.90;49.00
50955;DHT22;36966;48.064;-0.792;2024-01-07T04:43:36;15.90;49.00
50955;DHT22;36966;48.064;-0.792;2024-01-07T04:45:56;15.90;49.00
50955;DHT22;36966;48.064;-0.792;2024-01-07T04:48:15;15.90;49.00
50955;DHT22;36966;48.064;-0.792;2024-01-07T04:50:34;15.90;49.10
50955;DHT22;36966;48.064;-0.792;2024-01-07T04:52:54;15.90;49.00
50955;DHT22;36966;48.064;-0.792;2024-01-07T04:55:13;15.90;49.00
50955;DHT22;36966;48.064;-0.792;2024-01-07T04:57:32;15.90;49.10
50955;DHT22;36966;48.064;-0.792;2024-01-07T04:59:51;15.90;49.00
50955;DHT22;36966;48.064;-0.792;2024-01-07T05:02:11;15.90;49.10
50955;DHT22;36966;48.064;-0.792;2024-01-07T05:04:31;15.90;49.10
50955;DHT22;36966;48.064;-0.792;2024-01-07T05:06:51;15.90;49.10
50955;DHT22;36966;48.064;-0.792;2024-01-07T05:09:10;15.90;49.00
50955;DHT22;36966;48.064;-0.792;2024-01-07T05:11:29;16.10;52.00
50955;DHT22;36966;48.064;-0.792;2024-01-07T05:13:49;16.10;51.20
50955;DHT22;36966;48.064;-0.792;2024-01-07T05:16:08;16.10;50.90
50955;DHT22;36966;48.064;-0.792;2024-01-07T05:18:27;16.10;50.50
50955;DHT22;36966;48.064;-0.792;2024-01-07T05:20:46;16.00;50.10
50955;DHT22;36966;48.064;-0.792;2024-01-07T05:23:06;16.00;49.80
50955;DHT22;36966;48.064;-0.792;2024-01-07T05:25:25;16.00;49.70
50955;DHT22;36966;48.064;-0.792;2024-01-07T05:27:44;16.00;49.50
50955;DHT22;36966;48.064;-0.792;2024-01-07T05:30:03;16.00;49.50
50955;DHT22;36966;48.064;-0.792;2024-01-07T05:32:22;16.00;49.40
50955;DHT22;36966;48.064;-0.792;2024-01-07T05:34:42;16.00;49.30
50955;DHT22;36966;48.064;-0.792;2024-01-07T05:37:01;16.00;49.40
50955;DHT22;36966;48.064;-0.792;2024-01-07T05:39:20;16.00;49.30
50955;DHT22;36966;48.064;-0.792;2024-01-07T05:41:40;16.00;49.30
50955;DHT22;36966;48.064;-0.792;2024-01-07T05:43:59;16.10;49.20
50955;DHT22;36966;48.064;-0.792;2024-01-07T05:46:18;16.10;49.20
50955;DHT22;36966;48.064;-0.792;2024-01-07T05:48:45;16.10;49.10
50955;DHT22;36966;48.064;-0.792;2024-01-07T05:51:04;16.00;49.20
50955;DHT22;36966;48.064;-0.792;2024-01-07T05:53:24;16.10;49.20
50955;DHT22;36966;48.064;-0.792;2024-01-07T05:55:43;16.10;49.10
50955;DHT22;36966;48.064;-0.792;2024-01-07T05:58:02;16.00;49.20
50955;DHT22;36966;48.064;-0.792;2024-01-07T06:00:21;16.00;49.00
50955;DHT22;36966;48.064;-0.792;2024-01-07T06:02:41;16.10;49.10
50955;DHT22;36966;48.064;-0.792;2024-01-07T06:05:02;16.10;49.00
50955;DHT22;36966;48.064;-0.792;2024-01-07T06:07:21;16.10;49.00
50955;DHT22;36966;48.064;-0.792;2024-01-07T06:09:40;16.10;49.00
50955;DHT22;36966;48.064;-0.792;2024-01-07T06:11:59;16.10;49.00
50955;DHT22;36966;48.064;-0.792;2024-01-07T06:14:18;16.10;49.00
50955;DHT22;36966;48.064;-0.792;2024-01-07T06:16:38;16.10;48.90
50955;DHT22;36966;48.064;-0.792;2024-01-07T06:18:57;16.10;48.90
50955;DHT22;36966;48.064;-0.792;2024-01-07T06:21:17;16.10;49.00
50955;DHT22;36966;48.064;-0.792;2024-01-07T06:23:36;16.10;48.90
50955;DHT22;36966;48.064;-0.792;2024-01-07T06:25:55;16.10;48.90
50955;DHT22;36966;48.064;-0.792;2024-01-07T06:28:15;16.10;48.90
50955;DHT22;36966;48.064;-0.792;2024-01-07T06:30:34;16.10;48.90
50955;DHT22;36966;48.064;-0.792;2024-01-07T06:32:53;16.10;48.90
50955;DHT22;36966;48.064;-0.792;2024-01-07T06:35:12;16.10;48.90
50955;DHT22;36966;48.064;-0.792;2024-01-07T06:37:32;16.10;48.90
50955;DHT22;36966;48.064;-0.792;2024-01-07T06:39:51;16.10;48.90
50955;DHT22;36966;48.064;-0.792;2024-01-07T06:42:10;16.10;48.90
50955;DHT22;36966;48.064;-0.792;2024-01-07T06:44:29;16.10;48.90
50955;DHT22;36966;48.064;-0.792;2024-01-07T06:46:49;16.10;48.90
50955;DHT22;36966;48.064;-0.792;2024-01-07T06:49:08;16.10;48.80
50955;DHT22;36966;48.064;-0.792;2024-01-07T06:51:27;16.10;48.80
50955;DHT22;36966;48.064;-0.792;2024-01-07T06:53:47;16.10;48.80
50955;DHT22;36966;48.064;-0.792;2024-01-07T06:56:06;16.10;48.90
50955;DHT22;36966;48.064;-0.792;2024-01-07T06:58:25;16.10;48.90
50955;DHT22;36966;48.064;-0.792;2024-01-07T07:00:44;16.10;48.90
50955;DHT22;36966;48.064;-0.792;2024-01-07T07:03:04;16.10;48.90
50955;DHT22;36966;48.064;-0.792;2024-01-07T07:05:24;16.10;48.80
50955;DHT22;36966;48.064;-0.792;2024-01-07T07:07:43;16.10;48.90
50955;DHT22;36966;48.064;-0.792;2024-01-07T07:10:02;16.10;49.00
50955;DHT22;36966;48.064;-0.792;2024-01-07T07:12:22;16.10;48.90
50955;DHT22;36966;48.064;-0.792;2024-01-07T07:14:42;16.10;48.90
50955;DHT22;36966;48.064;-0.792;2024-01-07T07:17:01;16.10;48.90
50955;DHT22;36966;48.064;-0.792;2024-01-07T07:19:20;16.10;48.80
50955;DHT22;36966;48.064;-0.792;2024-01-07T07:21:40;16.10;48.80
50955;DHT22;36966;48.064;-0.792;2024-01-07T07:23:59;16.10;48.80
50955;DHT22;36966;48.064;-0.792;2024-01-07T07:26:18;16.10;48.80
50955;DHT22;36966;48.064;-0.792;2024-01-07T07:28:38;16.10;48.80
50955;DHT22;36966;48.064;-0.792;2024-01-07T07:30:57;16.10;48.70
50955;DHT22;36966;48.064;-0.792;2024-01-07T07:33:16;16.20;48.70
50955;DHT22;36966;48.064;-0.792;2024-01-07T07:35:36;16.20;48.70
50955;DHT22;36966;48.064;-0.792;2024-01-07T07:37:57;16.10;48.70
50955;DHT22;36966;48.064;-0.792;2024-01-07T07:40:16;16.20;48.70
50955;DHT22;36966;48.064;-0.792;2024-01-07T07:42:35;16.20;48.70
50955;DHT22;36966;48.064;-0.792;2024-01-07T07:44:55;16.20;48.70
50955;DHT22;36966;48.064;-0.792;2024-01-07T07:47:14;16.10;48.60
50955;DHT22;36966;48.064;-0.792;2024-01-07T07:49:33;16.10;48.70
50955;DHT22;36966;48.064;-0.792;2024-01-07T07:51:55;16.10;48.60
50955;DHT22;36966;48.064;-0.792;2024-01-07T07:54:14;16.20;48.70
50955;DHT22;36966;48.064;-0.792;2024-01-07T07:56:33;16.20;48.60
50955;DHT22;36966;48.064;-0.792;2024-01-07T07:58:55;16.10;48.60
50955;DHT22;36966;48.064;-0.792;2024-01-07T08:01:14;16.20;48.60
50955;DHT22;36966;48.064;-0.792;2024-01-07T08:03:33;16.20;48.60
50955;DHT22;36966;48.064;-0.792;2024-01-07T08:05:53;16.20;48.50
50955;DHT22;36966;48.064;-0.792;2024-01-07T08:08:12;16.10;48.50
50955;DHT22;36966;48.064;-0.792;2024-01-07T08:10:31;16.20;48.60
50955;DHT22;36966;48.064;-0.792;2024-01-07T08:12:51;16.20;48.60
50955;DHT22;36966;48.064;-0.792;2024-01-07T08:15:10;16.20;48.60
50955;DHT22;36966;48.064;-0.792;2024-01-07T08:17:29;16.20;48.60
50955;DHT22;36966;48.064;-0.792;2024-01-07T08:19:49;16.20;48.50
50955;DHT22;36966;48.064;-0.792;2024-01-07T08:22:08;16.20;48.60
50955;DHT22;36966;48.064;-0.792;2024-01-07T08:24:31;16.20;48.20
50955;DHT22;36966;48.064;-0.792;2024-01-07T08:26:50;16.10;48.10
50955;DHT22;36966;48.064;-0.792;2024-01-07T08:29:11;16.20;48.10
50955;DHT22;36966;48.064;-0.792;2024-01-07T08:31:31;16.10;48.10
50955;DHT22;36966;48.064;-0.792;2024-01-07T08:33:50;16.10;48.10
50955;DHT22;36966;48.064;-0.792;2024-01-07T08:36:09;16.10;48.10
50955;DHT22;36966;48.064;-0.792;2024-01-07T08:38:29;16.10;48.00
50955;DHT22;36966;48.064;-0.792;2024-01-07T08:40:48;16.10;48.00
50955;DHT22;36966;48.064;-0.792;2024-01-07T08:43:07;16.10;48.00
50955;DHT22;36966;48.064;-0.792;2024-01-07T08:45:27;16.10;47.90
50955;DHT22;36966;48.064;-0.792;2024-01-07T08:47:46;16.10;48.00
50955;DHT22;36966;48.064;-0.792;2024-01-07T08:50:05;16.10;47.90
50955;DHT22;36966;48.064;-0.792;2024-01-07T08:52:24;16.10;47.90
50955;DHT22;36966;48.064;-0.792;2024-01-07T08:54:43;16.10;47.90
50955;DHT22;36966;48.064;-0.792;2024-01-07T08:57:03;16.20;47.90
50955;DHT22;36966;48.064;-0.792;2024-01-07T08:59:22;16.20;47.90
50955;DHT22;36966;48.064;-0.792;2024-01-07T09:01:41;16.20;47.90
50955;DHT22;36966;48.064;-0.792;2024-01-07T09:04:01;16.20;47.90
50955;DHT22;36966;48.064;-0.792;2024-01-07T09:06:20;16.20;47.90
50955;DHT22;36966;48.064;-0.792;2024-01-07T09:08:39;16.20;47.90
50955;DHT22;36966;48.064;-0.792;2024-01-07T09:10:59;16.10;47.80
50955;DHT22;36966;48.064;-0.792;2024-01-07T09:13:19;16.20;47.80
50955;DHT22;36966;48.064;-0.792;2024-01-07T09:15:38;16.20;47.80
50955;DHT22;36966;48.064;-0.792;2024-01-07T09:17:57;16.10;47.80
50955;DHT22;36966;48.064;-0.792;2024-01-07T09:20:17;16.20;47.80
50955;DHT22;36966;48.064;-0.792;2024-01-07T09:22:36;16.10;47.80
50955;DHT22;36966;48.064;-0.792;2024-01-07T09:24:55;16.20;47.70
50955;DHT22;36966;48.064;-0.792;2024-01-07T09:27:15;16.20;47.70
50955;DHT22;36966;48.064;-0.792;2024-01-07T09:29:34;16.20;47.50
50955;DHT22;36966;48.064;-0.792;2024-01-07T09:31:53;16.20;47.50
50955;DHT22;36966;48.064;-0.792;2024-01-07T09:34:12;16.30;47.30
50955;DHT22;36966;48.064;-0.792;2024-01-07T09:36:32;16.30;47.40
50955;DHT22;36966;48.064;-0.792;2024-01-07T09:38:51;16.30;47.30
50955;DHT22;36966;48.064;-0.792;2024-01-07T09:41:12;16.40;47.20
50955;DHT22;36966;48.064;-0.792;2024-01-07T09:43:32;16.40;47.10
50955;DHT22;36966;48.064;-0.792;2024-01-07T09:45:51;16.40;47.10
50955;DHT22;36966;48.064;-0.792;2024-01-07T09:48:11;16.50;47.00
50955;DHT22;36966;48.064;-0.792;2024-01-07T09:50:30;16.50;47.00
50955;DHT22;36966;48.064;-0.792;2024-01-07T09:52:49;16.50;47.00
50955;DHT22;36966;48.064;-0.792;2024-01-07T09:55:09;16.60;46.90
50955;DHT22;36966;48.064;-0.792;2024-01-07T09:57:31;16.60;47.00
50955;DHT22;36966;48.064;-0.792;2024-01-07T09:59:52;16.60;46.90
50955;DHT22;36966;48.064;-0.792;2024-01-07T10:02:11;16.70;46.90
50955;DHT22;36966;48.064;-0.792;2024-01-07T10:04:30;16.70;46.90
50955;DHT22;36966;48.064;-0.792;2024-01-07T10:06:50;16.70;46.70
50955;DHT22;36966;48.064;-0.792;2024-01-07T10:09:11;16.70;46.60
50955;DHT22;36966;48.064;-0.792;2024-01-07T10:11:30;16.80;46.50
50955;DHT22;36966;48.064;-0.792;2024-01-07T10:13:50;16.80;46.40
50955;DHT22;36966;48.064;-0.792;2024-01-07T10:16:10;16.90;46.40
50955;DHT22;36966;48.064;-0.792;2024-01-07T10:18:30;16.90;46.40
50955;DHT22;36966;48.064;-0.792;2024-01-07T10:20:50;17.00;46.30
50955;DHT22;36966;48.064;-0.792;2024-01-07T10:23:09;17.00;46.20
50955;DHT22;36966;48.064;-0.792;2024-01-07T10:25:30;17.10;46.20
50955;DHT22;36966;48.064;-0.792;2024-01-07T10:27:49;17.10;46.10
50955;DHT22;36966;48.064;-0.792;2024-01-07T10:30:09;17.10;46.20
50955;DHT22;36966;48.064;-0.792;2024-01-07T10:32:28;17.20;45.90
50955;DHT22;36966;48.064;-0.792;2024-01-07T10:34:48;17.20;45.80
50955;DHT22;36966;48.064;-0.792;2024-01-07T10:37:07;17.20;45.80
50955;DHT22;36966;48.064;-0.792;2024-01-07T10:39:27;17.30;45.70
50955;DHT22;36966;48.064;-0.792;2024-01-07T10:41:47;17.30;45.60
50955;DHT22;36966;48.064;-0.792;2024-01-07T10:44:06;17.40;45.60
50955;DHT22;36966;48.064;-0.792;2024-01-07T10:46:25;17.40;45.40
50955;DHT22;36966;48.064;-0.792;2024-01-07T10:48:55;17.40;45.30
50955;DHT22;36966;48.064;-0.792;2024-01-07T10:51:17;17.50;45.30
50955;DHT22;36966;48.064;-0.792;2024-01-07T10:53:38;17.50;45.00
50955;DHT22;36966;48.064;-0.792;2024-01-07T10:56:00;17.60;44.80
50955;DHT22;36966;48.064;-0.792;2024-01-07T10:58:22;17.60;44.60
50955;DHT22;36966;48.064;-0.792;2024-01-07T11:00:42;17.70;44.60
50955;DHT22;36966;48.064;-0.792;2024-01-07T11:05:31;17.70;44.50
50955;DHT22;36966;48.064;-0.792;2024-01-07T11:07:55;17.70;44.40
50955;DHT22;36966;48.064;-0.792;2024-01-07T11:10:18;17.80;44.20
50955;DHT22;36966;48.064;-0.792;2024-01-07T11:12:38;17.80;44.40
50955;DHT22;36966;48.064;-0.792;2024-01-07T11:14:58;17.90;44.30
50955;DHT22;36966;48.064;-0.792;2024-01-07T11:19:56;17.90;43.90
50955;DHT22;36966;48.064;-0.792;2024-01-07T11:22:25;18.00;43.90
50955;DHT22;36966;48.064;-0.792;2024-01-07T11:24:46;18.00;43.50
50955;DHT22;36966;48.064;-0.792;2024-01-07T11:27:07;18.00;43.20
50955;DHT22;36966;48.064;-0.792;2024-01-07T11:29:27;18.10;43.20
50955;DHT22;36966;48.064;-0.792;2024-01-07T11:31:46;18.10;43.30
50955;DHT22;36966;48.064;-0.792;2024-01-07T11:34:06;18.10;43.40
50955;DHT22;36966;48.064;-0.792;2024-01-07T11:36:28;18.10;43.20
50955;DHT22;36966;48.064;-0.792;2024-01-07T11:38:48;18.10;43.00
50955;DHT22;36966;48.064;-0.792;2024-01-07T11:41:08;18.10;43.10
50955;DHT22;36966;48.064;-0.792;2024-01-07T11:43:28;18.10;43.10
50955;DHT22;36966;48.064;-0.792;2024-01-07T11:45:51;18.10;43.20
50955;DHT22;36966;48.064;-0.792;2024-01-07T11:48:10;18.10;43.10
50955;DHT22;36966;48.064;-0.792;2024-01-07T11:50:29;18.20;42.70
50955;DHT22;36966;48.064;-0.792;2024-01-07T11:52:49;18.20;42.80
50955;DHT22;36966;48.064;-0.792;2024-01-07T11:55:08;18.20;42.90
50955;DHT22;36966;48.064;-0.792;2024-01-07T11:57:28;18.20;42.80
50955;DHT22;36966;48.064;-0.792;2024-01-07T11:59:47;18.20;42.90
50955;DHT22;36966;48.064;-0.792;2024-01-07T12:02:07;18.20;42.60
50955;DHT22;36966;48.064;-0.792;2024-01-07T12:04:26;18.20;42.00
50955;DHT22;36966;48.064;-0.792;2024-01-07T12:06:45;18.20;42.30
50955;DHT22;36966;48.064;-0.792;2024-01-07T12:09:04;18.20;42.50
50955;DHT22;36966;48.064;-0.792;2024-01-07T12:11:25;18.20;42.60
50955;DHT22;36966;48.064;-0.792;2024-01-07T12:13:44;18.20;42.50
50955;DHT22;36966;48.064;-0.792;2024-01-07T12:16:07;18.20;42.40
50955;DHT22;36966;48.064;-0.792;2024-01-07T12:18:26;18.20;42.30
50955;DHT22;36966;48.064;-0.792;2024-01-07T12:20:58;18.20;42.20
50955;DHT22;36966;48.064;-0.792;2024-01-07T12:23:18;18.20;42.20
50955;DHT22;36966;48.064;-0.792;2024-01-07T12:25:37;18.30;42.00
50955;DHT22;36966;48.064;-0.792;2024-01-07T12:27:57;18.20;42.10
50955;DHT22;36966;48.064;-0.792;2024-01-07T12:30:16;18.20;41.90
50955;DHT22;36966;48.064;-0.792;2024-01-07T12:32:36;18.20;41.80
50955;DHT22;36966;48.064;-0.792;2024-01-07T12:34:59;18.20;41.80
50955;DHT22;36966;48.064;-0.792;2024-01-07T12:37:18;18.20;41.80
50955;DHT22;36966;48.064;-0.792;2024-01-07T12:39:37;18.20;41.50
50955;DHT22;36966;48.064;-0.792;2024-01-07T12:41:57;18.10;41.20
50955;DHT22;36966;48.064;-0.792;2024-01-07T12:44:16;18.10;41.10
50955;DHT22;36966;48.064;-0.792;2024-01-07T12:46:36;18.00;41.00
50955;DHT22;36966;48.064;-0.792;2024-01-07T12:48:55;18.00;40.90
50955;DHT22;36966;48.064;-0.792;2024-01-07T12:51:14;18.00;41.30
50955;DHT22;36966;48.064;-0.792;2024-01-07T12:53:33;18.00;41.90
50955;DHT22;36966;48.064;-0.792;2024-01-07T12:55:53;17.90;42.00
50955;DHT22;36966;48.064;-0.792;2024-01-07T12:58:12;17.90;42.20
50955;DHT22;36966;48.064;-0.792;2024-01-07T13:00:31;17.90;41.60
50955;DHT22;36966;48.064;-0.792;2024-01-07T13:02:50;17.90;42.00
50955;DHT22;36966;48.064;-0.792;2024-01-07T13:05:09;17.80;42.40
50955;DHT22;36966;48.064;-0.792;2024-01-07T13:07:29;17.80;42.70
50955;DHT22;36966;48.064;-0.792;2024-01-07T13:09:48;17.80;42.90
50955;DHT22;36966;48.064;-0.792;2024-01-07T13:12:07;17.80;43.10
50955;DHT22;36966;48.064;-0.792;2024-01-07T13:14:27;17.80;43.20
50955;DHT22;36966;48.064;-0.792;2024-01-07T13:16:46;17.70;43.30
50955;DHT22;36966;48.064;-0.792;2024-01-07T13:19:05;17.70;43.40
50955;DHT22;36966;48.064;-0.792;2024-01-07T13:21:24;17.70;43.50
50955;DHT22;36966;48.064;-0.792;2024-01-07T13:23:43;17.70;43.70
50955;DHT22;36966;48.064;-0.792;2024-01-07T13:26:03;17.60;43.80
50955;DHT22;36966;48.064;-0.792;2024-01-07T13:28:24;17.70;43.90
50955;DHT22;36966;48.064;-0.792;2024-01-07T13:30:44;17.60;43.90
50955;DHT22;36966;48.064;-0.792;2024-01-07T13:33:03;17.50;44.00
50955;DHT22;36966;48.064;-0.792;2024-01-07T13:35:22;17.50;43.80
50955;DHT22;36966;48.064;-0.792;2024-01-07T13:37:42;17.50;44.10
50955;DHT22;36966;48.064;-0.792;2024-01-07T13:40:02;17.50;44.20
50955;DHT22;36966;48.064;-0.792;2024-01-07T13:42:23;17.50;44.30
50955;DHT22;36966;48.064;-0.792;2024-01-07T13:44:42;17.40;44.30
50955;DHT22;36966;48.064;-0.792;2024-01-07T13:47:05;17.40;44.30
50955;DHT22;36966;48.064;-0.792;2024-01-07T13:49:25;17.50;44.40
50955;DHT22;36966;48.064;-0.792;2024-01-07T13:51:44;17.50;44.40
50955;DHT22;36966;48.064;-0.792;2024-01-07T13:54:03;17.40;44.50
50955;DHT22;36966;48.064;-0.792;2024-01-07T13:56:22;17.40;44.50
50955;DHT22;36966;48.064;-0.792;2024-01-07T13:58:42;17.30;44.50
50955;DHT22;36966;48.064;-0.792;2024-01-07T14:01:02;17.40;44.50
50955;DHT22;36966;48.064;-0.792;2024-01-07T14:03:21;17.40;44.50
50955;DHT22;36966;48.064;-0.792;2024-01-07T14:05:41;17.30;44.50
50955;DHT22;36966;48.064;-0.792;2024-01-07T14:08:00;17.30;44.60
50955;DHT22;36966;48.064;-0.792;2024-01-07T14:10:19;17.30;44.50
50955;DHT22;36966;48.064;-0.792;2024-01-07T14:12:39;17.30;44.50
50955;DHT22;36966;48.064;-0.792;2024-01-07T14:14:58;17.30;44.60
50955;DHT22;36966;48.064;-0.792;2024-01-07T14:17:20;17.30;44.50
50955;DHT22;36966;48.064;-0.792;2024-01-07T14:19:40;17.30;44.60
50955;DHT22;36966;48.064;-0.792;2024-01-07T14:21:59;17.30;44.60
50955;DHT22;36966;48.064;-0.792;2024-01-07T14:24:19;17.30;44.60
50955;DHT22;36966;48.064;-0.792;2024-01-07T14:26:39;17.20;44.60
50955;DHT22;36966;48.064;-0.792;2024-01-07T14:28:58;17.30;44.70
50955;DHT22;36966;48.064;-0.792;2024-01-07T14:31:17;17.30;44.70